Terminal Aerodrome Forecast
Issued by NWS

Home | Current Version | Previous Version | Graphics & Text | Print | Product List | Glossary On
Versions: 1 2 3 4 5 6 7 8 9 10 11 12 13 14 15 16 17 18 19 20 21
000
FTUS43 KIWX 202320
TAFSBN
TAF
KSBN 202320Z 2100/2124 28010KT 5SM -RA OVC050
      TEMPO 2100/2103 2SM RA BR BKN008
     FM210300 30011KT 5SM -RA BR OVC008
     FM211100 32010KT P6SM OVC015=

USA.gov is the U.S. government's official web portal to all federal, state and local government web resources and services.